sensor_id;sensor_type;location;lat;lon;timestamp;pressure;altitude;pressure_sealevel;temperature;humidity
28927;BME280;16038;47.692;9.400;2023-08-30T00:01:47;96142.78;;;11.63;100.00
28927;BME280;16038;47.692;9.400;2023-08-30T00:04:13;96138.09;;;11.75;100.00
28927;BME280;16038;47.692;9.400;2023-08-30T00:06:38;96135.38;;;11.85;100.00
28927;BME280;16038;47.692;9.400;2023-08-30T00:09:03;96128.38;;;11.95;100.00
28927;BME280;16038;47.692;9.400;2023-08-30T00:11:29;96136.59;;;11.99;100.00
28927;BME280;16038;47.692;9.400;2023-08-30T00:14:02;96134.66;;;11.99;100.00
28927;BME280;16038;47.692;9.400;2023-08-30T00:16:28;96132.31;;;12.01;100.00
28927;BME280;16038;47.692;9.400;2023-08-30T00:18:53;96130.72;;;11.93;100.00
28927;BME280;16038;47.692;9.400;2023-08-30T00:21:19;96141.66;;;11.86;100.00
28927;BME280;16038;47.692;9.400;2023-08-30T00:23:44;96142.84;;;11.85;100.00
28927;BME280;16038;47.692;9.400;2023-08-30T00:26:10;96141.63;;;11.82;100.00
28927;BME280;16038;47.692;9.400;2023-08-30T00:28:35;96143.56;;;11.71;100.00
28927;BME280;16038;47.692;9.400;2023-08-30T00:31:00;96140.06;;;11.74;100.00
28927;BME280;16038;47.692;9.400;2023-08-30T00:33:26;96137.34;;;11.81;100.00
28927;BME280;16038;47.692;9.400;2023-08-30T00:35:58;96133.41;;;11.90;100.00
28927;BME280;16038;47.692;9.400;2023-08-30T00:38:26;96135.81;;;11.91;100.00
28927;BME280;16038;47.692;9.400;2023-08-30T00:40:51;96138.56;;;11.98;100.00
28927;BME280;16038;47.692;9.400;2023-08-30T00:43:18;96134.25;;;12.08;100.00
28927;BME280;16038;47.692;9.400;2023-08-30T00:45:44;96134.69;;;12.10;100.00
28927;BME280;16038;47.692;9.400;2023-08-30T00:48:10;96127.59;;;12.09;100.00
28927;BME280;16038;47.692;9.400;2023-08-30T00:50:36;96126.44;;;12.03;100.00
28927;BME280;16038;47.692;9.400;2023-08-30T00:53:03;96137.78;;;11.98;100.00
28927;BME280;16038;47.692;9.400;2023-08-30T00:55:35;96126.03;;;12.08;100.00
28927;BME280;16038;47.692;9.400;2023-08-30T00:58:01;96122.13;;;12.20;100.00
28927;BME280;16038;47.692;9.400;2023-08-30T01:00:28;96113.13;;;12.27;100.00
28927;BME280;16038;47.692;9.400;2023-08-30T01:02:55;96115.88;;;12.30;100.00
28927;BME280;16038;47.692;9.400;2023-08-30T01:05:21;96118.63;;;12.34;100.00
28927;BME280;16038;47.692;9.400;2023-08-30T01:07:46;96109.56;;;12.37;100.00
28927;BME280;16038;47.692;9.400;2023-08-30T01:10:12;96117.03;;;12.40;100.00
28927;BME280;16038;47.692;9.400;2023-08-30T01:12:41;96113.50;;;12.43;100.00
28927;BME280;16038;47.692;9.400;2023-08-30T01:15:28;96108.78;;;12.33;100.00
28927;BME280;16038;47.692;9.400;2023-08-30T01:17:55;96110.00;;;12.32;100.00
28927;BME280;16038;47.692;9.400;2023-08-30T01:20:22;96095.44;;;12.31;100.00
28927;BME280;16038;47.692;9.400;2023-08-30T01:23:09;96102.53;;;12.32;100.00
28927;BME280;16038;47.692;9.400;2023-08-30T01:28:19;96095.06;;;12.40;100.00
28927;BME280;16038;47.692;9.400;2023-08-30T01:30:46;96094.28;;;12.39;100.00
28927;BME280;16038;47.692;9.400;2023-08-30T01:33:14;96089.56;;;12.40;100.00
28927;BME280;16038;47.692;9.400;2023-08-30T01:35:40;96093.50;;;12.42;100.00
28927;BME280;16038;47.692;9.400;2023-08-30T01:38:07;96089.19;;;12.38;100.00
28927;BME280;16038;47.692;9.400;2023-08-30T01:40:36;96090.34;;;12.37;100.00
28927;BME280;16038;47.692;9.400;2023-08-30T01:43:04;96090.34;;;12.33;100.00
28927;BME280;16038;47.692;9.400;2023-08-30T01:45:32;96088.03;;;12.35;100.00
28927;BME280;16038;47.692;9.400;2023-08-30T01:47:58;96083.69;;;12.45;100.00
28927;BME280;16038;47.692;9.400;2023-08-30T01:50:24;96080.94;;;12.45;100.00
28927;BME280;16038;47.692;9.400;2023-08-30T01:52:50;96079.34;;;12.44;100.00
28927;BME280;16038;47.692;9.400;2023-08-30T01:55:18;96082.91;;;12.30;100.00
28927;BME280;16038;47.692;9.400;2023-08-30T01:57:45;96089.19;;;12.27;100.00
28927;BME280;16038;47.692;9.400;2023-08-30T02:00:11;96088.03;;;12.21;100.00
28927;BME280;16038;47.692;9.400;2023-08-30T02:02:37;96092.31;;;12.00;100.00
28927;BME280;16038;47.692;9.400;2023-08-30T02:05:03;96087.53;;;11.86;100.00
28927;BME280;16038;47.692;9.400;2023-08-30T02:07:43;96081.28;;;11.82;100.00
28927;BME280;16038;47.692;9.400;2023-08-30T02:10:17;96085.97;;;11.78;100.00
28927;BME280;16038;47.692;9.400;2023-08-30T02:12:48;96085.97;;;11.78;100.00
28927;BME280;16038;47.692;9.400;2023-08-30T02:15:15;96084.81;;;11.86;100.00
28927;BME280;16038;47.692;9.400;2023-08-30T02:17:42;96087.59;;;11.94;100.00
28927;BME280;16038;47.692;9.400;2023-08-30T02:20:09;96081.72;;;12.02;100.00
28927;BME280;16038;47.692;9.400;2023-08-30T02:22:34;96077.03;;;12.14;100.00
28927;BME280;16038;47.692;9.400;2023-08-30T02:25:00;96069.97;;;12.23;100.00
28927;BME280;16038;47.692;9.400;2023-08-30T02:27:31;96070.75;;;12.28;100.00
28927;BME280;16038;47.692;9.400;2023-08-30T02:29:56;96062.13;;;12.33;100.00
28927;BME280;16038;47.692;9.400;2023-08-30T02:32:22;96067.22;;;12.34;100.00
28927;BME280;16038;47.692;9.400;2023-08-30T02:34:52;96073.88;;;12.26;100.00
28927;BME280;16038;47.692;9.400;2023-08-30T02:37:18;96077.03;;;12.03;100.00
28927;BME280;16038;47.692;9.400;2023-08-30T02:39:44;96068.34;;;11.76;100.00
28927;BME280;16038;47.692;9.400;2023-08-30T02:42:09;96078.13;;;11.66;100.00
28927;BME280;16038;47.692;9.400;2023-08-30T02:44:34;96071.84;;;11.55;100.00
28927;BME280;16038;47.692;9.400;2023-08-30T02:47:00;96076.53;;;11.54;100.00
28927;BME280;16038;47.692;9.400;2023-08-30T02:49:25;96065.97;;;11.63;100.00
28927;BME280;16038;47.692;9.400;2023-08-30T02:51:51;96078.50;;;11.68;100.00
28927;BME280;16038;47.692;9.400;2023-08-30T02:54:16;96075.34;;;11.59;100.00
28927;BME280;16038;47.692;9.400;2023-08-30T02:56:42;96065.16;;;11.59;100.00
28927;BME280;16038;47.692;9.400;2023-08-30T02:59:08;96067.53;;;11.61;100.00
28927;BME280;16038;47.692;9.400;2023-08-30T03:01:35;96064.00;;;11.64;100.00
28927;BME280;16038;47.692;9.400;2023-08-30T03:04:00;96057.38;;;11.69;100.00
28927;BME280;16038;47.692;9.400;2023-08-30T03:06:26;96056.97;;;11.81;100.00
28927;BME280;16038;47.692;9.400;2023-08-30T03:08:53;96066.00;;;11.89;100.00
28927;BME280;16038;47.692;9.400;2023-08-30T03:11:19;96060.56;;;11.96;100.00
28927;BME280;16038;47.692;9.400;2023-08-30T03:13:44;96061.34;;;11.96;100.00
28927;BME280;16038;47.692;9.400;2023-08-30T03:16:14;96063.69;;;11.98;100.00
28927;BME280;16038;47.692;9.400;2023-08-30T03:18:40;96059.38;;;12.00;100.00
28927;BME280;16038;47.692;9.400;2023-08-30T03:21:06;96061.34;;;11.96;100.00
28927;BME280;16038;47.692;9.400;2023-08-30T03:23:32;96061.31;;;11.89;100.00
28927;BME280;16038;47.692;9.400;2023-08-30T03:25:58;96058.56;;;11.85;100.00
28927;BME280;16038;47.692;9.400;2023-08-30T03:28:23;96055.81;;;11.89;100.00
28927;BME280;16038;47.692;9.400;2023-08-30T03:30:49;96059.75;;;11.92;100.00
28927;BME280;16038;47.692;9.400;2023-08-30T03:33:14;96065.63;;;11.90;100.00
28927;BME280;16038;47.692;9.400;2023-08-30T03:35:40;96054.66;;;11.90;100.00
28927;BME280;16038;47.692;9.400;2023-08-30T03:38:05;96062.47;;;11.84;100.00
28927;BME280;16038;47.692;9.400;2023-08-30T03:40:31;96053.84;;;11.79;100.00
28927;BME280;16038;47.692;9.400;2023-08-30T03:42:56;96055.03;;;11.74;100.00
28927;BME280;16038;47.692;9.400;2023-08-30T03:45:21;96046.78;;;11.63;100.00
28927;BME280;16038;47.692;9.400;2023-08-30T03:47:47;96047.94;;;11.59;100.00
28927;BME280;16038;47.692;9.400;2023-08-30T03:50:12;96053.75;;;11.43;100.00
28927;BME280;16038;47.692;9.400;2023-08-30T03:52:37;96054.94;;;11.31;100.00
28927;BME280;16038;47.692;9.400;2023-08-30T03:55:03;96060.78;;;11.26;100.00
28927;BME280;16038;47.692;9.400;2023-08-30T03:57:29;96065.47;;;11.22;100.00
28927;BME280;16038;47.692;9.400;2023-08-30T03:59:54;96059.19;;;11.25;100.00
28927;BME280;16038;47.692;9.400;2023-08-30T04:02:19;96065.06;;;11.23;100.00
28927;BME280;16038;47.692;9.400;2023-08-30T04:04:47;96064.59;;;11.07;100.00
28927;BME280;16038;47.692;9.400;2023-08-30T04:07:14;96064.19;;;10.98;100.00
28927;BME280;16038;47.692;9.400;2023-08-30T04:09:39;96066.91;;;10.94;100.00
28927;BME280;16038;47.692;9.400;2023-08-30T04:12:05;96072.75;;;10.93;100.00
28927;BME280;16038;47.692;9.400;2023-08-30T04:14:31;96069.63;;;10.90;100.00
28927;BME280;16038;47.692;9.400;2023-08-30T04:16:56;96064.53;;;10.93;100.00
28927;BME280;16038;47.692;9.400;2023-08-30T04:19:22;96068.06;;;10.86;100.00
28927;BME280;16038;47.692;9.400;2023-08-30T04:21:47;96068.44;;;10.84;100.00
28927;BME280;16038;47.692;9.400;2023-08-30T04:24:13;96073.91;;;10.84;100.00
28927;BME280;16038;47.692;9.400;2023-08-30T04:26:40;96072.31;;;10.80;100.00
28927;BME280;16038;47.692;9.400;2023-08-30T04:29:05;96073.91;;;10.81;100.00
28927;BME280;16038;47.692;9.400;2023-08-30T04:31:30;96077.44;;;10.85;100.00
28927;BME280;16038;47.692;9.400;2023-08-30T04:33:56;96073.09;;;10.84;100.00
28927;BME280;16038;47.692;9.400;2023-08-30T04:36:21;96075.88;;;10.87;100.00
28927;BME280;16038;47.692;9.400;2023-08-30T04:38:47;96071.25;;;10.99;100.00
28927;BME280;16038;47.692;9.400;2023-08-30T04:41:12;96063.75;;;10.88;100.00
28927;BME280;16038;47.692;9.400;2023-08-30T04:43:38;96075.88;;;10.91;100.00
28927;BME280;16038;47.692;9.400;2023-08-30T04:46:03;96072.72;;;10.85;100.00
28927;BME280;16038;47.692;9.400;2023-08-30T04:48:29;96073.09;;;10.84;100.00
28927;BME280;16038;47.692;9.400;2023-08-30T04:50:59;96075.44;;;10.82;100.00
28927;BME280;16038;47.692;9.400;2023-08-30T04:53:25;96082.13;;;10.81;100.00
28927;BME280;16038;47.692;9.400;2023-08-30T04:55:50;96082.50;;;10.83;100.00
28927;BME280;16038;47.692;9.400;2023-08-30T04:58:15;96082.53;;;10.86;100.00
28927;BME280;16038;47.692;9.400;2023-08-30T05:00:41;96075.94;;;11.02;100.00
28927;BME280;16038;47.692;9.400;2023-08-30T05:03:06;96077.19;;;11.15;100.00
28927;BME280;16038;47.692;9.400;2023-08-30T05:05:32;96081.44;;;11.09;100.00
28927;BME280;16038;47.692;9.400;2023-08-30T05:07:57;96081.38;;;10.95;100.00
28927;BME280;16038;47.692;9.400;2023-08-30T05:10:23;96079.41;;;10.88;100.00
28927;BME280;16038;47.692;9.400;2023-08-30T05:12:48;96079.78;;;10.86;100.00
28927;BME280;16038;47.692;9.400;2023-08-30T05:15:17;96075.44;;;10.82;100.00
28927;BME280;16038;47.692;9.400;2023-08-30T05:17:43;96072.69;;;10.78;100.00
28927;BME280;16038;47.692;9.400;2023-08-30T05:20:08;96068.78;;;10.76;100.00
28927;BME280;16038;47.692;9.400;2023-08-30T05:22:34;96073.06;;;10.77;100.00
28927;BME280;16038;47.692;9.400;2023-08-30T05:24:59;96074.66;;;10.78;100.00
28927;BME280;16038;47.692;9.400;2023-08-30T05:27:25;96062.16;;;10.84;100.00
28927;BME280;16038;47.692;9.400;2023-08-30T05:29:51;96064.16;;;10.90;100.00
28927;BME280;16038;47.692;9.400;2023-08-30T05:32:17;96064.22;;;11.05;100.00
28927;BME280;16038;47.692;9.400;2023-08-30T05:34:42;96065.47;;;11.22;100.00
28927;BME280;16038;47.692;9.400;2023-08-30T05:37:08;96073.31;;;11.31;100.00
28927;BME280;16038;47.692;9.400;2023-08-30T05:39:34;96063.56;;;11.40;100.00
28927;BME280;16038;47.692;9.400;2023-08-30T05:41:59;96057.75;;;11.60;100.00
28927;BME280;16038;47.692;9.400;2023-08-30T05:44:25;96060.88;;;11.69;100.00
28927;BME280;16038;47.692;9.400;2023-08-30T05:46:50;96073.84;;;11.79;100.00
28927;BME280;16038;47.692;9.400;2023-08-30T05:49:15;96065.22;;;11.88;100.00
28927;BME280;16038;47.692;9.400;2023-08-30T05:51:41;96065.63;;;11.97;100.00
28927;BME280;16038;47.692;9.400;2023-08-30T05:54:06;96071.09;;;11.86;100.00
28927;BME280;16038;47.692;9.400;2023-08-30T05:56:32;96066.75;;;11.64;100.00
28927;BME280;16038;47.692;9.400;2023-08-30T05:58:57;96070.22;;;11.46;100.00
28927;BME280;16038;47.692;9.400;2023-08-30T06:01:23;96070.63;;;11.45;100.00
28927;BME280;16038;47.692;9.400;2023-08-30T06:03:48;96078.44;;;11.43;100.00
28927;BME280;16038;47.692;9.400;2023-08-30T06:06:16;96067.88;;;11.48;100.00
28927;BME280;16038;47.692;9.400;2023-08-30T06:08:42;96071.41;;;11.42;100.00
28927;BME280;16038;47.692;9.400;2023-08-30T06:11:07;96072.56;;;11.44;100.00
28927;BME280;16038;47.692;9.400;2023-08-30T06:13:33;96078.06;;;11.44;100.00
28927;BME280;16038;47.692;9.400;2023-08-30T06:15:58;96081.59;;;11.52;100.00
28927;BME280;16038;47.692;9.400;2023-08-30T06:18:23;96085.56;;;11.58;100.00
28927;BME280;16038;47.692;9.400;2023-08-30T06:20:49;96090.66;;;11.60;100.00
28927;BME280;16038;47.692;9.400;2023-08-30T06:23:18;96080.88;;;11.73;100.00
28927;BME280;16038;47.692;9.400;2023-08-30T06:25:43;96085.19;;;11.71;100.00
28927;BME280;16038;47.692;9.400;2023-08-30T06:28:09;96093.44;;;11.74;100.00
28927;BME280;16038;47.692;9.400;2023-08-30T06:30:34;96093.41;;;11.71;100.00
28927;BME280;16038;47.692;9.400;2023-08-30T06:33:00;96088.34;;;11.80;100.00
28927;BME280;16038;47.692;9.400;2023-08-30T06:35:25;96090.34;;;11.94;100.00
28927;BME280;16038;47.692;9.400;2023-08-30T06:37:51;96096.63;;;12.05;100.00
28927;BME280;16038;47.692;9.400;2023-08-30T06:40:17;96095.84;;;12.15;100.00
28927;BME280;16038;47.692;9.400;2023-08-30T06:42:42;96100.56;;;12.26;100.00
28927;BME280;16038;47.692;9.400;2023-08-30T06:45:08;96103.69;;;12.38;100.00
28927;BME280;16038;47.692;9.400;2023-08-30T06:47:34;96093.09;;;12.30;100.00
28927;BME280;16038;47.692;9.400;2023-08-30T06:50:00;96089.97;;;12.28;100.00
28927;BME280;16038;47.692;9.400;2023-08-30T06:52:26;96094.28;;;12.14;100.00
28927;BME280;16038;47.692;9.400;2023-08-30T06:54:51;96089.19;;;12.13;100.00
28927;BME280;16038;47.692;9.400;2023-08-30T06:57:17;96091.53;;;12.07;100.00
28927;BME280;16038;47.692;9.400;2023-08-30T06:59:42;96080.56;;;12.07;100.00
28927;BME280;16038;47.692;9.400;2023-08-30T07:02:08;96084.09;;;12.18;100.00
28927;BME280;16038;47.692;9.400;2023-08-30T07:04:33;96077.81;;;12.29;100.00
28927;BME280;16038;47.692;9.400;2023-08-30T07:06:59;96074.69;;;12.37;100.00
28927;BME280;16038;47.692;9.400;2023-08-30T07:09:24;96075.44;;;12.38;100.00
28927;BME280;16038;47.692;9.400;2023-08-30T07:11:55;96071.53;;;12.46;100.00
28927;BME280;16038;47.692;9.400;2023-08-30T07:14:20;96076.56;;;12.73;100.00
28927;BME280;16038;47.692;9.400;2023-08-30T07:16:46;96078.09;;;12.99;100.00
28927;BME280;16038;47.692;9.400;2023-08-30T07:19:11;96077.00;;;12.64;100.00
28927;BME280;16038;47.692;9.400;2023-08-30T07:21:36;96069.47;;;12.93;100.00
28927;BME280;16038;47.692;9.400;2023-08-30T07:24:05;96077.25;;;13.20;100.00
28927;BME280;16038;47.692;9.400;2023-08-30T07:26:31;96074.13;;;13.11;100.00
28927;BME280;16038;47.692;9.400;2023-08-30T07:28:56;96075.91;;;13.53;100.00
28927;BME280;16038;47.692;9.400;2023-08-30T07:31:22;96072.00;;;13.54;100.00
28927;BME280;16038;47.692;9.400;2023-08-30T07:33:47;96071.13;;;13.68;100.00
28927;BME280;16038;47.692;9.400;2023-08-30T07:36:13;96071.16;;;13.61;100.00
28927;BME280;16038;47.692;9.400;2023-08-30T07:38:38;96070.38;;;13.61;100.00
28927;BME280;16038;47.692;9.400;2023-08-30T07:41:04;96073.97;;;13.47;100.00
28927;BME280;16038;47.692;9.400;2023-08-30T07:43:30;96072.34;;;14.20;100.00
28927;BME280;16038;47.692;9.400;2023-08-30T07:45:55;96075.78;;;14.31;100.00
28927;BME280;16038;47.692;9.400;2023-08-30T07:48:21;96075.59;;;14.07;100.00
28927;BME280;16038;47.692;9.400;2023-08-30T07:50:47;96065.50;;;13.86;100.00
28927;BME280;16038;47.692;9.400;2023-08-30T07:53:12;96065.44;;;14.46;100.00
28927;BME280;16038;47.692;9.400;2023-08-30T07:55:38;96072.66;;;15.12;100.00
28927;BME280;16038;47.692;9.400;2023-08-30T07:58:03;96064.44;;;16.01;100.00
28927;BME280;16038;47.692;9.400;2023-08-30T08:00:29;96070.75;;;17.16;100.00
28927;BME280;16038;47.692;9.400;2023-08-30T08:02:55;96075.63;;;17.68;100.00
28927;BME280;16038;47.692;9.400;2023-08-30T08:05:20;96071.88;;;17.95;100.00
28927;BME280;16038;47.692;9.400;2023-08-30T08:07:51;96076.94;;;16.56;100.00
28927;BME280;16038;47.692;9.400;2023-08-30T08:10:16;96078.22;;;16.28;100.00
28927;BME280;16038;47.692;9.400;2023-08-30T08:12:43;96079.00;;;17.39;100.00
28927;BME280;16038;47.692;9.400;2023-08-30T08:15:08;96089.13;;;17.06;100.00
28927;BME280;16038;47.692;9.400;2023-08-30T08:17:34;96088.78;;;17.44;100.00
28927;BME280;16038;47.692;9.400;2023-08-30T08:20:00;96088.25;;;19.04;100.00
28927;BME280;16038;47.692;9.400;2023-08-30T08:22:25;96097.41;;;20.28;90.50
28927;BME280;16038;47.692;9.400;2023-08-30T08:24:51;96106.41;;;21.84;70.46
28927;BME280;16038;47.692;9.400;2023-08-30T08:27:18;96099.03;;;22.90;66.45
28927;BME280;16038;47.692;9.400;2023-08-30T08:29:44;96108.94;;;24.11;58.89
28927;BME280;16038;47.692;9.400;2023-08-30T08:32:09;96109.13;;;23.71;59.46
28927;BME280;16038;47.692;9.400;2023-08-30T08:34:35;96108.59;;;22.70;61.79
28927;BME280;16038;47.692;9.400;2023-08-30T08:37:00;96110.78;;;22.66;60.18
28927;BME280;16038;47.692;9.400;2023-08-30T08:39:25;96106.94;;;22.01;59.46
28927;BME280;16038;47.692;9.400;2023-08-30T08:41:51;96105.28;;;21.37;61.54
28927;BME280;16038;47.692;9.400;2023-08-30T08:44:18;96110.16;;;21.11;63.26
28927;BME280;16038;47.692;9.400;2023-08-30T08:46:45;96101.13;;;20.59;67.49
28927;BME280;16038;47.692;9.400;2023-08-30T08:49:13;96100.94;;;20.41;71.57
28927;BME280;16038;47.692;9.400;2023-08-30T08:51:40;96106.31;;;20.10;69.25
28927;BME280;16038;47.692;9.400;2023-08-30T08:54:05;96094.25;;;18.86;79.88
28927;BME280;16038;47.692;9.400;2023-08-30T08:56:32;96092.81;;;19.11;80.40
28927;BME280;16038;47.692;9.400;2023-08-30T08:58:59;96084.81;;;18.84;82.97
28927;BME280;16038;47.692;9.400;2023-08-30T09:01:25;96087.13;;;19.73;75.71
28927;BME280;16038;47.692;9.400;2023-08-30T09:03:51;96097.97;;;19.55;75.73
28927;BME280;16038;47.692;9.400;2023-08-30T09:06:17;96090.22;;;19.33;78.57
28927;BME280;16038;47.692;9.400;2023-08-30T09:08:43;96091.53;;;19.58;76.54
28927;BME280;16038;47.692;9.400;2023-08-30T09:11:08;96090.72;;;19.86;77.71
28927;BME280;16038;47.692;9.400;2023-08-30T09:13:34;96093.06;;;19.88;78.74
28927;BME280;16038;47.692;9.400;2023-08-30T09:15:59;96098.50;;;19.92;73.72
28927;BME280;16038;47.692;9.400;2023-08-30T09:18:25;96095.59;;;19.40;78.59
28927;BME280;16038;47.692;9.400;2023-08-30T09:23:33;96095.59;;;19.11;82.46
28927;BME280;16038;47.692;9.400;2023-08-30T09:25:59;96092.53;;;18.93;82.84
28927;BME280;16038;47.692;9.400;2023-08-30T09:28:25;96097.13;;;18.50;83.17
28927;BME280;16038;47.692;9.400;2023-08-30T09:30:51;96097.97;;;18.63;80.04
28927;BME280;16038;47.692;9.400;2023-08-30T09:33:37;96094.34;;;17.81;86.17
28927;BME280;16038;47.692;9.400;2023-08-30T09:36:09;96087.16;;;17.83;85.15
28927;BME280;16038;47.692;9.400;2023-08-30T09:38:37;96097.09;;;18.01;83.03
28927;BME280;16038;47.692;9.400;2023-08-30T09:41:03;96094.84;;;17.95;82.84
28927;BME280;16038;47.692;9.400;2023-08-30T09:43:32;96091.00;;;17.89;83.46
28927;BME280;16038;47.692;9.400;2023-08-30T09:45:57;96090.53;;;18.11;76.16
28927;BME280;16038;47.692;9.400;2023-08-30T09:48:27;96090.91;;;18.46;77.45
28927;BME280;16038;47.692;9.400;2023-08-30T09:50:54;96090.56;;;19.35;71.17
28927;BME280;16038;47.692;9.400;2023-08-30T09:53:25;96102.16;;;19.76;67.57
28927;BME280;16038;47.692;9.400;2023-08-30T09:55:54;96102.41;;;20.46;61.49
28927;BME280;16038;47.692;9.400;2023-08-30T09:58:23;96096.47;;;20.82;64.63
28927;BME280;16038;47.692;9.400;2023-08-30T10:00:49;96094.84;;;20.46;63.63
28927;BME280;16038;47.692;9.400;2023-08-30T10:03:15;96096.81;;;21.41;61.55
28927;BME280;16038;47.692;9.400;2023-08-30T10:05:44;96098.31;;;21.55;59.29
28927;BME280;16038;47.692;9.400;2023-08-30T10:08:11;96094.63;;;21.58;60.73
28927;BME280;16038;47.692;9.400;2023-08-30T10:10:39;96080.88;;;21.64;59.97
28927;BME280;16038;47.692;9.400;2023-08-30T10:13:05;96082.16;;;21.50;58.83
28927;BME280;16038;47.692;9.400;2023-08-30T10:15:33;96083.84;;;21.69;60.16
28927;BME280;16038;47.692;9.400;2023-08-30T10:18:01;96077.19;;;21.45;57.92
28927;BME280;16038;47.692;9.400;2023-08-30T10:20:28;96068.41;;;21.11;60.89
28927;BME280;16038;47.692;9.400;2023-08-30T10:22:55;96079.16;;;21.00;61.74
28927;BME280;16038;47.692;9.400;2023-08-30T10:25:26;96070.16;;;21.40;61.18
28927;BME280;16038;47.692;9.400;2023-08-30T10:27:56;96073.59;;;21.88;59.46
28927;BME280;16038;47.692;9.400;2023-08-30T10:30:23;96070.69;;;22.01;58.22
28927;BME280;16038;47.692;9.400;2023-08-30T10:32:49;96074.28;;;22.42;57.70
28927;BME280;16038;47.692;9.400;2023-08-30T10:35:17;96068.75;;;22.79;57.12
28927;BME280;16038;47.692;9.400;2023-08-30T10:37:53;96071.25;;;22.86;57.62
28927;BME280;16038;47.692;9.400;2023-08-30T10:40:20;96070.69;;;22.32;59.31
28927;BME280;16038;47.692;9.400;2023-08-30T10:42:57;96060.66;;;22.44;60.20
28927;BME280;16038;47.692;9.400;2023-08-30T10:45:23;96066.34;;;22.00;58.29
28927;BME280;16038;47.692;9.400;2023-08-30T10:47:54;96061.97;;;21.90;57.23
28927;BME280;16038;47.692;9.400;2023-08-30T10:50:30;96066.97;;;21.95;57.94
28927;BME280;16038;47.692;9.400;2023-08-30T10:52:56;96062.28;;;21.92;58.17
28927;BME280;16038;47.692;9.400;2023-08-30T10:55:22;96058.66;;;21.51;58.10
28927;BME280;16038;47.692;9.400;2023-08-30T10:57:58;96051.50;;;22.03;58.16
28927;BME280;16038;47.692;9.400;2023-08-30T11:00:24;96045.22;;;22.21;56.16
28927;BME280;16038;47.692;9.400;2023-08-30T11:02:51;96061.16;;;22.70;53.91
28927;BME280;16038;47.692;9.400;2023-08-30T11:05:18;96053.84;;;21.73;53.42
28927;BME280;16038;47.692;9.400;2023-08-30T11:07:45;96054.47;;;22.49;55.00
28927;BME280;16038;47.692;9.400;2023-08-30T11:10:11;96052.34;;;22.90;52.43
28927;BME280;16038;47.692;9.400;2023-08-30T11:12:37;96053.75;;;22.95;52.62
28927;BME280;16038;47.692;9.400;2023-08-30T11:15:06;96050.66;;;23.30;51.60
28927;BME280;16038;47.692;9.400;2023-08-30T11:17:32;96049.06;;;23.66;52.46
28927;BME280;16038;47.692;9.400;2023-08-30T11:20:05;96050.16;;;23.59;53.10
28927;BME280;16038;47.692;9.400;2023-08-30T11:22:32;96049.06;;;23.47;53.90
28927;BME280;16038;47.692;9.400;2023-08-30T11:24:57;96053.75;;;23.51;53.18
28927;BME280;16038;47.692;9.400;2023-08-30T11:27:23;96048.91;;;23.51;52.35
28927;BME280;16038;47.692;9.400;2023-08-30T11:29:48;96041.81;;;22.95;53.27
28927;BME280;16038;47.692;9.400;2023-08-30T11:32:13;96040.38;;;22.90;53.61
28927;BME280;16038;47.692;9.400;2023-08-30T11:34:39;96038.53;;;22.19;56.04
28927;BME280;16038;47.692;9.400;2023-08-30T11:37:04;96039.28;;;21.79;57.46
28927;BME280;16038;47.692;9.400;2023-08-30T11:39:30;96041.75;;;22.08;56.54
28927;BME280;16038;47.692;9.400;2023-08-30T11:41:56;96031.47;;;22.36;55.81
28927;BME280;16038;47.692;9.400;2023-08-30T11:44:28;96038.53;;;22.19;55.80
28927;BME280;16038;47.692;9.400;2023-08-30T11:46:59;96041.94;;;21.82;57.42
28927;BME280;16038;47.692;9.400;2023-08-30T11:49:27;96037.66;;;21.59;57.89
28927;BME280;16038;47.692;9.400;2023-08-30T11:51:54;96036.88;;;21.90;58.75
28927;BME280;16038;47.692;9.400;2023-08-30T11:57:04;96037.16;;;21.83;57.54
28927;BME280;16038;47.692;9.400;2023-08-30T11:59:34;96026.34;;;21.85;55.82
28927;BME280;16038;47.692;9.400;2023-08-30T12:02:00;96028.78;;;21.51;57.71
28927;BME280;16038;47.692;9.400;2023-08-30T12:04:26;96028.66;;;21.55;56.75
28927;BME280;16038;47.692;9.400;2023-08-30T12:06:54;96016.28;;;21.56;56.02
28927;BME280;16038;47.692;9.400;2023-08-30T12:09:19;96024.28;;;21.76;53.46
28927;BME280;16038;47.692;9.400;2023-08-30T12:11:51;96023.91;;;21.65;54.76
28927;BME280;16038;47.692;9.400;2023-08-30T12:14:16;96026.78;;;21.52;55.21
28927;BME280;16038;47.692;9.400;2023-08-30T12:16:42;96026.03;;;21.83;54.81
28927;BME280;16038;47.692;9.400;2023-08-30T12:19:11;96027.88;;;21.86;53.86
28927;BME280;16038;47.692;9.400;2023-08-30T12:21:41;96029.88;;;21.32;53.68
28927;BME280;16038;47.692;9.400;2023-08-30T12:24:07;96023.84;;;21.87;53.08
28927;BME280;16038;47.692;9.400;2023-08-30T12:26:32;96021.84;;;21.56;55.55
28927;BME280;16038;47.692;9.400;2023-08-30T12:28:58;96025.56;;;21.84;54.79
28927;BME280;16038;47.692;9.400;2023-08-30T12:31:23;96017.00;;;21.79;54.49
28927;BME280;16038;47.692;9.400;2023-08-30T12:33:49;96018.28;;;21.87;54.97
28927;BME280;16038;47.692;9.400;2023-08-30T12:36:14;96019.88;;;21.66;52.56
28927;BME280;16038;47.692;9.400;2023-08-30T12:38:39;96015.84;;;21.98;52.70
28927;BME280;16038;47.692;9.400;2023-08-30T12:41:05;96019.09;;;21.96;52.71
28927;BME280;16038;47.692;9.400;2023-08-30T12:43:30;96016.69;;;21.76;51.87
28927;BME280;16038;47.692;9.400;2023-08-30T12:45:56;96008.63;;;21.79;50.03
28927;BME280;16038;47.692;9.400;2023-08-30T12:48:21;96015.69;;;21.61;49.84
28927;BME280;16038;47.692;9.400;2023-08-30T12:50:47;96017.63;;;21.29;50.67
28927;BME280;16038;47.692;9.400;2023-08-30T12:53:14;96013.50;;;20.90;52.92
28927;BME280;16038;47.692;9.400;2023-08-30T12:58:13;96010.66;;;21.03;53.60
28927;BME280;16038;47.692;9.400;2023-08-30T13:00:39;96009.75;;;21.06;52.31